Preview of NWS' New Version of Forecast
This preview is not operational and should not be used for support decisions.

Terminal Aerodrome Forecast (TAF)

Issued by National Weather Service (NWS)

                            
130 
FTUS42 KMFL 210855 AAA
TAFMIA
TAF AMD
KMIA 210855Z 2109/2212 10013KT P6SM SCT025 BKN045
     FM211400 10015KT P6SM SCT025 BKN040
     FM220000 09013KT P6SM FEW020 SCT040
     FM220300 09010KT P6SM SCT025 SCT030=